Time;durP1;ratioP1;P1;durP2;ratioP2;P2;SDS_P1;SDS_P2;PMS_P1;PMS_P2;Temp;Humidity;BMP_temperature;BMP_pressure;BME280_temperature;BME280_humidity;BME280_pressure;Samples;Min_cycle;Max_cycle;Signal;HPM_P1;HPM_P2
2023/02/28 00:02:35;;;;;;;4.40;4.00;;;;;;;4.44;39.96;99504.63;7002797;28;20207;-81
2023/02/28 00:05:56;;;;;;;4.57;4.07;;;;;;;4.29;40.17;99498.09;7002480;28;20379;-80
2023/02/28 00:09:17;;;;;;;4.63;3.80;;;;;;;3.81;40.88;99475.28;7002989;28;20409;-81
2023/02/28 00:12:41;;;;;;;3.77;3.47;;;;;;;3.98;40.80;99495.84;7001671;28;20786;-80
2023/02/28 00:16:03;;;;;;;4.33;3.53;;;;;;;4.21;39.95;99475.81;7002265;28;20351;-80
2023/02/28 00:19:25;;;;;;;3.80;3.50;;;;;;;4.38;39.77;99489.22;7002807;28;20348;-81
2023/02/28 00:22:48;;;;;;;3.80;3.50;;;;;;;4.26;40.04;99493.03;7003393;28;20771;-81
2023/02/28 00:26:09;;;;;;;4.33;3.93;;;;;;;4.00;40.71;99485.88;7003817;28;20269;-81
2023/02/28 00:29:32;;;;;;;4.97;4.00;;;;;;;4.26;39.98;99494.88;7003777;28;20314;-81
2023/02/28 00:32:53;;;;;;;3.83;3.50;;;;;;;4.41;39.45;99488.88;7003993;28;20303;-80
2023/02/28 00:36:15;;;;;;;4.87;3.60;;;;;;;4.47;39.82;99492.78;7002831;28;20294;-81
2023/02/28 00:39:37;;;;;;;5.27;4.63;;;;;;;4.54;39.80;99484.03;7002856;28;20376;-81
2023/02/28 00:42:59;;;;;;;5.13;4.63;;;;;;;4.63;39.56;99485.81;7002624;28;20266;-80
2023/02/28 00:46:22;;;;;;;4.43;4.03;;;;;;;4.57;40.01;99486.41;7002739;28;20360;-81
2023/02/28 00:49:43;;;;;;;4.00;3.70;;;;;;;4.22;40.43;99486.34;7002142;28;20832;-81
2023/02/28 00:53:05;;;;;;;3.83;3.43;;;;;;;4.47;40.48;99482.94;7003040;28;20199;-81
2023/02/28 00:56:26;;;;;;;5.40;4.10;;;;;;;4.51;40.03;99487.00;7001727;28;20211;-80
2023/02/28 00:59:48;;;;;;;5.00;3.87;;;;;;;4.53;40.60;99487.69;7002525;28;20232;-80
2023/02/28 01:03:11;;;;;;;4.03;3.73;;;;;;;4.25;40.89;99487.88;6995579;28;20649;-79
2023/02/28 01:06:32;;;;;;;4.60;4.20;;;;;;;3.97;41.44;99488.84;6985225;28;20226;-81
2023/02/28 01:09:54;;;;;;;4.67;3.83;;;;;;;4.11;41.47;99491.00;7003270;28;20772;-80
2023/02/28 01:13:16;;;;;;;5.10;3.83;;;;;;;4.37;40.81;99492.84;6999671;28;20210;-81
2023/02/28 01:16:37;;;;;;;5.53;3.63;;;;;;;4.55;40.57;99475.00;6998544;28;20688;-81
2023/02/28 01:20:00;;;;;;;3.90;3.60;;;;;;;4.42;40.86;99487.91;6999455;28;20264;-81
2023/02/28 01:23:23;;;;;;;3.37;3.10;;;;;;;4.08;41.95;99480.66;6999047;28;20306;-81
2023/02/28 01:26:45;;;;;;;3.87;3.57;;;;;;;3.80;41.31;99391.78;6998091;28;20234;-81
2023/02/28 01:30:07;;;;;;;4.73;3.97;;;;;;;4.62;40.99;99472.59;6997764;28;20223;-81
2023/02/28 01:33:29;;;;;;;4.47;4.07;;;;;;;4.45;41.23;99487.59;6998200;28;20210;-81
2023/02/28 01:36:52;;;;;;;4.20;3.80;;;;;;;4.23;41.75;99479.16;6997509;28;20286;-80
2023/02/28 01:40:14;;;;;;;4.27;3.87;;;;;;;4.45;41.28;99474.25;6998499;28;20225;-81
2023/02/28 01:43:53;;;;;;;4.13;3.80;;;;;;;3.57;43.86;99483.81;6998374;28;20258;-81
2023/02/28 01:47:15;;;;;;;7.43;4.37;;;;;;;4.04;42.86;99471.25;6997121;28;20714;-81
2023/02/28 01:50:42;;;;;;;4.67;3.90;;;;;;;4.42;41.78;99477.22;6997812;28;20330;-81
2023/02/28 01:54:13;;;;;;;4.40;3.87;;;;;;;4.60;41.55;99467.41;6998053;28;20671;-81
2023/02/28 01:57:37;;;;;;;5.37;4.17;;;;;;;4.13;42.43;99447.19;6997150;28;20556;-80
2023/02/28 02:00:59;;;;;;;5.53;4.07;;;;;;;3.85;42.92;99474.88;6998154;28;20255;-81
2023/02/28 02:04:22;;;;;;;4.60;4.20;;;;;;;3.74;43.49;99428.88;6997790;28;20670;-81
2023/02/28 02:07:46;;;;;;;4.53;4.13;;;;;;;4.33;42.69;99459.44;6996688;28;20284;-80
2023/02/28 02:11:12;;;;;;;5.20;4.53;;;;;;;4.45;42.73;99441.38;6997621;28;20662;-80
2023/02/28 02:14:42;;;;;;;6.97;5.10;;;;;;;4.28;43.52;99460.88;6996475;28;20282;-81
2023/02/28 02:18:07;;;;;;;5.63;4.90;;;;;;;4.42;43.15;99458.53;6996918;28;20222;-81
2023/02/28 02:21:56;;;;;;;4.90;4.10;;;;;;;3.78;44.40;99451.59;6997224;28;20646;-80
2023/02/28 02:25:25;;;;;;;6.17;4.40;;;;;;;4.37;43.08;99442.13;6997686;28;20809;-80
2023/02/28 02:29:05;;;;;;;4.43;4.03;;;;;;;4.30;43.64;99450.91;6996577;28;20238;-80
2023/02/28 02:33:03;;;;;;;6.10;4.40;;;;;;;4.08;43.46;99436.13;6997401;28;20290;-80
2023/02/28 02:36:28;;;;;;;4.67;4.20;;;;;;;3.50;44.91;99447.19;6973561;28;20553;-80
2023/02/28 02:39:55;;;;;;;4.87;4.37;;;;;;;4.03;43.89;99425.09;6997237;28;20709;-80
2023/02/28 02:43:21;;;;;;;4.73;4.30;;;;;;;4.50;42.98;99436.41;6996657;28;20248;-80
2023/02/28 02:46:44;;;;;;;5.03;4.53;;;;;;;4.62;42.82;99437.88;6995962;28;20227;-80
2023/02/28 02:50:09;;;;;;;5.60;4.47;;;;;;;4.83;42.12;99447.25;6997207;28;20256;-81
2023/02/28 02:53:36;;;;;;;4.27;3.87;;;;;;;4.06;43.98;99435.44;6996545;28;20206;-80
2023/02/28 02:57:00;;;;;;;6.93;4.50;;;;;;;4.36;43.84;99442.28;6996252;28;20194;-80
2023/02/28 03:00:25;;;;;;;5.43;4.70;;;;;;;4.34;43.86;99417.56;6996906;28;20700;-80
2023/02/28 03:03:46;;;;;;;5.83;4.20;;;;;;;4.21;43.88;99433.09;6995125;28;20573;-80
2023/02/28 03:07:08;;;;;;;4.83;4.40;;;;;;;4.04;44.74;99433.91;6996587;28;20292;-80
2023/02/28 03:10:36;;;;;;;7.73;5.03;;;;;;;3.53;45.39;99442.41;6997446;28;20297;-80
2023/02/28 03:14:13;;;;;;;6.57;4.50;;;;;;;3.99;44.96;99438.84;6997004;28;20189;-80
2023/02/28 03:17:51;;;;;;;6.23;4.60;;;;;;;4.06;44.95;99430.09;6998502;28;20193;-81
2023/02/28 03:21:18;;;;;;;6.50;4.87;;;;;;;3.34;46.26;99446.97;7003700;28;20595;-80
2023/02/28 03:24:44;;;;;;;6.00;4.97;;;;;;;3.93;45.41;99455.44;7003542;28;20245;-80
2023/02/28 03:28:11;;;;;;;5.00;4.50;;;;;;;3.86;45.45;99451.69;7002969;28;20678;-80
2023/02/28 03:31:37;;;;;;;5.07;4.60;;;;;;;3.30;46.83;99454.41;7003089;28;20200;-80
2023/02/28 03:35:03;;;;;;;5.53;4.60;;;;;;;3.75;45.79;99433.22;7003062;28;20557;-80
2023/02/28 03:38:30;;;;;;;5.90;4.67;;;;;;;4.16;45.15;99430.03;7003033;28;20315;-80
2023/02/28 03:41:54;;;;;;;6.60;5.17;;;;;;;4.44;44.60;99440.56;7003494;28;20188;-81
2023/02/28 03:45:19;;;;;;;6.23;4.80;;;;;;;3.82;45.30;99411.13;7002755;28;20216;-80
2023/02/28 03:48:43;;;;;;;5.97;4.73;;;;;;;4.48;44.02;99431.22;7003208;28;20820;-80
2023/02/28 03:52:07;;;;;;;4.33;3.97;;;;;;;3.93;45.90;99440.28;7003532;28;20655;-80
2023/02/28 03:55:33;;;;;;;5.53;4.80;;;;;;;4.27;45.07;99446.69;7002901;28;20262;-80
2023/02/28 03:58:58;;;;;;;6.20;5.33;;;;;;;4.18;44.87;99452.94;7002814;28;20226;-80
2023/02/28 04:02:21;;;;;;;6.60;4.83;;;;;;;4.70;44.53;99432.59;7003358;28;20267;-80
2023/02/28 04:05:52;;;;;;;6.17;5.33;;;;;;;4.91;43.33;99425.97;7002353;28;20206;-80
2023/02/28 04:09:14;;;;;;;7.07;5.00;;;;;;;4.70;42.98;99411.22;6975456;28;20231;-80
2023/02/28 04:12:36;;;;;;;5.37;4.87;;;;;;;4.78;43.47;99444.19;6974365;28;20202;-80
2023/02/28 04:15:57;;;;;;;6.33;5.33;;;;;;;4.80;43.67;99442.25;6975378;28;20253;-80
2023/02/28 04:19:20;;;;;;;8.20;4.90;;;;;;;4.84;43.26;99443.59;6975476;28;20639;-80
2023/02/28 04:22:42;;;;;;;5.87;4.67;;;;;;;4.79;43.92;99445.88;6975527;28;20212;-80
2023/02/28 04:26:05;;;;;;;5.50;4.93;;;;;;;4.26;44.14;99375.59;6975420;28;20682;-80
2023/02/28 04:29:28;;;;;;;6.10;4.57;;;;;;;4.77;44.05;99445.19;6974669;28;20231;-80
2023/02/28 04:32:50;;;;;;;8.10;5.60;;;;;;;4.15;44.97;99455.06;6991293;28;20353;-80
2023/02/28 04:36:14;;;;;;;6.87;5.07;;;;;;;4.55;44.87;99448.31;7002907;28;20680;-80
2023/02/28 04:39:36;;;;;;;5.70;4.80;;;;;;;4.36;44.51;99429.75;7003770;28;20231;-80
2023/02/28 04:42:58;;;;;;;5.83;5.33;;;;;;;4.42;44.96;99447.03;7003877;28;20331;-80
2023/02/28 04:46:20;;;;;;;6.00;5.23;;;;;;;3.79;45.85;99383.94;7002575;28;20209;-80
2023/02/28 04:49:42;;;;;;;6.07;5.47;;;;;;;4.74;45.12;99433.97;7003134;28;20229;-80
2023/02/28 04:53:05;;;;;;;5.37;4.83;;;;;;;5.15;43.62;99436.84;7003634;28;20236;-80
2023/02/28 04:56:26;;;;;;;5.90;5.30;;;;;;;5.05;43.87;99438.78;7003687;28;20274;-80
2023/02/28 04:59:48;;;;;;;7.73;5.57;;;;;;;4.88;44.86;99433.44;7003612;28;20280;-80
2023/02/28 05:03:10;;;;;;;5.53;4.83;;;;;;;4.05;45.51;99374.22;7002511;28;20365;-80
2023/02/28 05:06:33;;;;;;;6.40;5.43;;;;;;;4.48;45.69;99452.59;6978212;28;20222;-80
2023/02/28 05:09:56;;;;;;;7.07;5.30;;;;;;;3.33;47.96;99463.94;6972764;28;20683;-80
2023/02/28 05:13:17;;;;;;;6.57;5.50;;;;;;;4.79;44.87;99453.88;6971135;28;20263;-80
2023/02/28 05:16:39;;;;;;;6.97;5.40;;;;;;;4.86;44.51;99430.09;6972156;28;20296;-80
2023/02/28 05:20:00;;;;;;;6.53;5.37;;;;;;;4.68;44.92;99443.47;6973041;28;20227;-80
2023/02/28 05:23:24;;;;;;;5.90;5.30;;;;;;;3.48;48.00;99455.34;6972190;28;20206;-79
2023/02/28 05:26:47;;;;;;;7.10;5.77;;;;;;;4.46;45.66;99440.38;6970069;28;20212;-79
2023/02/28 05:30:11;;;;;;;6.27;5.67;;;;;;;4.49;45.63;99445.44;6991938;28;20236;-80
2023/02/28 05:33:32;;;;;;;6.83;6.17;;;;;;;4.69;45.59;99442.47;6997071;28;20690;-80
2023/02/28 05:36:54;;;;;;;7.30;5.50;;;;;;;4.56;44.52;99399.28;6992679;28;20195;-79
2023/02/28 05:40:15;;;;;;;9.40;6.10;;;;;;;5.02;43.95;99431.03;6969230;28;20608;-80
2023/02/28 05:43:39;;;;;;;6.20;5.43;;;;;;;5.12;44.07;99458.53;6969398;28;20210;-80
2023/02/28 05:47:00;;;;;;;6.70;6.03;;;;;;;4.79;44.56;99450.41;6968868;28;20289;-79
2023/02/28 05:50:22;;;;;;;7.83;5.67;;;;;;;4.92;44.91;99456.19;6969331;28;20233;-80
2023/02/28 05:53:43;;;;;;;6.97;5.93;;;;;;;4.93;43.26;99404.41;6970498;28;20205;-79
2023/02/28 05:57:05;;;;;;;9.03;6.60;;;;;;;4.86;43.67;99462.13;6970152;28;20330;-80
2023/02/28 06:00:28;;;;;;;6.27;5.57;;;;;;;5.05;44.03;99467.31;6984631;28;21173;-79
2023/02/28 06:03:49;;;;;;;9.13;6.23;;;;;;;5.04;43.05;99433.56;6997374;28;20212;-80
2023/02/28 06:07:11;;;;;;;7.07;6.00;;;;;;;4.62;44.22;99467.25;6996401;28;20373;-80
2023/02/28 06:10:32;;;;;;;7.50;5.80;;;;;;;4.78;44.28;99478.09;6996065;28;20296;-80
2023/02/28 06:13:55;;;;;;;8.43;6.50;;;;;;;4.76;44.00;99424.81;6996370;28;20648;-79
2023/02/28 06:17:18;;;;;;;8.83;6.57;;;;;;;4.90;43.51;99476.88;6997402;28;20188;-78
2023/02/28 06:20:39;;;;;;;7.97;6.47;;;;;;;4.48;44.31;99484.63;6981298;28;20733;-79
2023/02/28 06:24:01;;;;;;;8.97;6.93;;;;;;;4.23;44.84;99482.69;6977593;28;20722;-80
2023/02/28 06:27:22;;;;;;;8.03;6.90;;;;;;;4.39;45.29;99484.69;6969094;28;20280;-79
2023/02/28 06:30:44;;;;;;;9.33;7.10;;;;;;;4.55;44.43;99434.13;6990949;28;20231;-79
2023/02/28 06:34:06;;;;;;;8.83;6.80;;;;;;;5.17;43.60;99479.44;6997234;28;20211;-79
2023/02/28 06:37:28;;;;;;;14.60;7.77;;;;;;;4.96;43.41;99487.78;6996327;28;20299;-79
2023/02/28 06:40:54;;;;;;;8.60;7.00;;;;;;;4.51;44.41;99476.34;6997275;28;20203;-84
2023/02/28 06:44:17;;;;;;;9.17;6.90;;;;;;;3.69;46.33;99490.66;6997181;28;20217;-80
2023/02/28 06:47:39;;;;;;;8.93;7.47;;;;;;;4.44;45.06;99499.28;6997781;28;20273;-80
2023/02/28 06:51:07;;;;;;;8.00;5.90;;;;;;;4.60;44.89;99495.94;6998649;28;20206;-80
2023/02/28 06:54:28;;;;;;;7.97;7.17;;;;;;;4.85;44.15;99504.03;7003284;28;20280;-80
2023/02/28 06:57:50;;;;;;;10.50;7.17;;;;;;;4.17;45.18;99512.63;7004987;28;20280;-79
2023/02/28 07:01:12;;;;;;;7.77;6.93;;;;;;;4.75;43.57;99508.63;7004757;28;20212;-80
2023/02/28 07:04:33;;;;;;;7.60;6.80;;;;;;;4.50;44.52;99501.34;7001613;28;20207;-79
2023/02/28 07:07:56;;;;;;;9.47;7.57;;;;;;;4.22;44.99;99522.84;7001179;28;20295;-80
2023/02/28 07:11:18;;;;;;;10.10;7.43;;;;;;;4.15;45.44;99521.75;7004160;28;20219;-80
2023/02/28 07:14:39;;;;;;;8.83;7.40;;;;;;;3.99;46.25;99503.72;7003577;28;20273;-80
2023/02/28 07:18:01;;;;;;;10.47;7.70;;;;;;;3.68;46.25;99440.13;7004246;28;20260;-80
2023/02/28 07:21:23;;;;;;;8.47;7.57;;;;;;;3.89;45.47;99526.91;7002478;28;20206;-80
2023/02/28 07:24:46;;;;;;;8.87;7.40;;;;;;;4.09;45.80;99527.69;7003601;28;20352;-80
2023/02/28 07:28:07;;;;;;;12.23;7.57;;;;;;;4.99;44.15;99510.69;6991751;28;20222;-80
2023/02/28 07:31:29;;;;;;;10.27;8.33;;;;;;;4.85;44.29;99503.22;6977077;28;20291;-80
2023/02/28 07:34:50;;;;;;;10.93;7.00;;;;;;;4.84;43.73;99523.72;6976819;28;20646;-79
2023/02/28 07:38:13;;;;;;;11.23;7.80;;;;;;;4.65;43.74;99533.72;6973482;28;20224;-79
2023/02/28 07:41:42;;;;;;;12.37;7.53;;;;;;;3.77;46.62;99529.94;6973362;28;20299;-79
2023/02/28 07:45:05;;;;;;;9.80;7.20;;;;;;;3.92;46.89;99534.63;6972274;28;20247;-79
2023/02/28 07:48:27;;;;;;;8.80;7.90;;;;;;;4.40;45.23;99537.09;6971677;28;20236;-79
2023/02/28 07:51:48;;;;;;;7.93;7.03;;;;;;;3.95;45.96;99542.34;6972589;28;20554;-78
2023/02/28 07:55:11;;;;;;;11.37;7.97;;;;;;;4.10;45.62;99511.53;6972888;28;20300;-79
2023/02/28 07:58:34;;;;;;;8.80;7.57;;;;;;;3.88;46.13;99529.72;6972663;28;20236;-79
2023/02/28 08:01:58;;;;;;;8.47;7.23;;;;;;;3.06;47.62;99530.44;6999491;28;20292;-79
2023/02/28 08:05:19;;;;;;;11.10;7.33;;;;;;;3.49;47.58;99536.97;6999447;28;20204;-78
2023/02/28 08:08:41;;;;;;;10.00;7.40;;;;;;;4.32;45.08;99529.00;7000704;28;20239;-79
2023/02/28 08:12:02;;;;;;;11.37;8.53;;;;;;;4.52;45.64;99535.88;7002306;28;20208;-79
2023/02/28 08:15:25;;;;;;;9.47;7.40;;;;;;;5.11;43.76;99507.63;7001362;28;20288;-81
2023/02/28 08:18:47;;;;;;;10.50;7.40;;;;;;;4.69;44.62;99540.44;6990591;28;20232;-81
2023/02/28 08:22:08;;;;;;;9.10;7.77;;;;;;;4.47;44.03;99479.44;6987146;28;20339;-81
2023/02/28 08:25:30;;;;;;;9.63;7.50;;;;;;;5.26;43.65;99527.47;6982595;28;20251;-80
2023/02/28 08:28:51;;;;;;;8.90;7.77;;;;;;;5.75;42.43;99536.72;6976207;28;20321;-80
2023/02/28 08:32:14;;;;;;;9.67;7.93;;;;;;;4.33;44.61;99550.19;7006099;28;20204;-79
2023/02/28 08:35:36;;;;;;;11.30;8.00;;;;;;;4.11;44.97;99494.53;6996151;28;20307;-80
2023/02/28 08:38:59;;;;;;;10.87;7.70;;;;;;;4.45;44.28;99549.03;6994354;28;20222;-79
2023/02/28 08:42:21;;;;;;;10.60;8.17;;;;;;;4.89;43.89;99542.81;6985397;28;20210;-80
2023/02/28 08:45:42;;;;;;;9.10;8.20;;;;;;;4.75;44.42;99534.47;6961116;28;1076317;-79
2023/02/28 08:49:06;;;;;;;10.40;8.20;;;;;;;4.33;45.65;99546.69;7004462;28;20329;-79
2023/02/28 08:52:28;;;;;;;13.97;8.80;;;;;;;3.76;46.44;99504.22;7003495;28;20203;-80
2023/02/28 08:55:56;;;;;;;11.50;8.50;;;;;;;4.24;45.69;99510.22;6992030;28;20203;-81
2023/02/28 08:59:18;;;;;;;8.97;7.67;;;;;;;4.51;45.09;99548.41;6981435;28;20371;-81
2023/02/28 09:02:40;;;;;;;10.60;8.17;;;;;;;4.48;44.73;99556.72;7003129;28;20379;-80
2023/02/28 09:06:04;;;;;;;12.03;8.77;;;;;;;3.81;46.65;99558.81;7000211;28;20306;-79
2023/02/28 09:09:26;;;;;;;8.90;8.00;;;;;;;4.55;44.86;99525.75;7000906;28;20256;-80
2023/02/28 09:12:47;;;;;;;11.10;7.93;;;;;;;4.57;44.55;99555.84;7002698;28;20199;-81
2023/02/28 09:16:12;;;;;;;10.20;7.80;;;;;;;4.98;43.82;99552.63;7008226;28;20256;-82
2023/02/28 09:19:33;;;;;;;11.27;8.37;;;;;;;4.38;45.85;99547.94;7014967;28;20685;-80
2023/02/28 09:22:56;;;;;;;10.10;7.87;;;;;;;4.89;43.29;99453.84;7014592;28;20213;-80
2023/02/28 09:26:19;;;;;;;9.80;8.17;;;;;;;4.76;44.47;99550.38;7015475;28;20253;-81
2023/02/28 09:29:41;;;;;;;9.37;7.97;;;;;;;4.98;43.21;99549.94;7019023;28;20232;-80
2023/02/28 09:33:03;;;;;;;12.30;9.63;;;;;;;5.42;43.12;99550.84;7025485;28;20193;-83
2023/02/28 09:36:25;;;;;;;12.07;8.37;;;;;;;5.52;42.11;99533.72;7003293;28;20213;-82
2023/02/28 09:39:48;;;;;;;9.00;8.10;;;;;;;4.65;42.81;99473.13;6998890;28;20235;-82
2023/02/28 09:43:13;;;;;;;11.80;8.67;;;;;;;5.34;42.76;99554.28;6996707;28;20246;-81
2023/02/28 09:46:37;;;;;;;12.20;9.37;;;;;;;5.71;42.64;99560.25;7005559;28;20231;-82
2023/02/28 09:49:59;;;;;;;10.17;8.17;;;;;;;5.77;41.19;99505.31;7005592;28;20228;-82
2023/02/28 09:53:26;;;;;;;9.43;7.93;;;;;;;4.99;43.04;99537.41;6984011;28;20279;-80
2023/02/28 09:56:53;;;;;;;11.07;8.83;;;;;;;5.37;42.83;99570.00;6978541;28;20203;-80
2023/02/28 10:00:17;;;;;;;11.53;8.73;;;;;;;5.33;42.81;99549.94;7000565;28;20217;-80
2023/02/28 10:03:41;;;;;;;10.60;8.20;;;;;;;5.81;41.58;99568.22;7000427;28;20349;-80
2023/02/28 10:07:06;;;;;;;9.90;8.03;;;;;;;5.32;42.75;99560.78;6999947;28;20877;-80
2023/02/28 10:10:30;;;;;;;9.73;8.70;;;;;;;6.44;41.54;99557.06;6999519;28;20231;-80
2023/02/28 10:14:01;;;;;;;10.43;8.57;;;;;;;5.79;40.53;99514.81;6998335;28;20736;-80
2023/02/28 10:17:25;;;;;;;9.90;8.77;;;;;;;5.59;41.47;99558.84;6987106;28;20208;-80
2023/02/28 10:20:47;;;;;;;11.17;8.13;;;;;;;7.06;39.83;99575.34;6973815;28;20597;-80
2023/02/28 10:24:28;;;;;;;10.87;8.43;;;;;;;6.47;40.04;99559.41;6972824;28;20757;-80
2023/02/28 10:27:50;;;;;;;9.33;7.87;;;;;;;5.85;40.33;99511.53;6979857;28;20232;-81
2023/02/28 10:31:17;;;;;;;11.43;8.43;;;;;;;7.00;39.51;99576.00;6992017;28;20232;-80
2023/02/28 10:34:38;;;;;;;11.37;8.87;;;;;;;6.54;39.84;99570.31;6999212;28;20216;-81
2023/02/28 10:38:01;;;;;;;10.07;8.67;;;;;;;7.33;39.12;99576.91;6994991;28;20255;-80
2023/02/28 10:41:34;;;;;;;11.73;7.57;;;;;;;7.55;37.58;99534.13;6998863;28;20265;-84
2023/02/28 10:45:07;;;;;;;12.67;8.90;;;;;;;7.18;38.91;99568.66;6997881;28;20209;-81
2023/02/28 10:48:39;;;;;;;10.23;8.13;;;;;;;6.96;39.05;99571.97;6996981;28;20316;-83
2023/02/28 10:52:01;;;;;;;11.37;8.87;;;;;;;7.05;38.44;99501.28;6999692;28;20205;-82
2023/02/28 10:55:25;;;;;;;9.87;8.50;;;;;;;7.98;36.66;99557.94;6999225;28;20210;-81
2023/02/28 10:58:53;;;;;;;11.27;9.20;;;;;;;8.02;37.13;99567.31;7004801;28;20228;-83
2023/02/28 11:02:33;;;;;;;10.90;9.40;;;;;;;7.82;37.16;99563.31;6980913;28;20646;-81
2023/02/28 11:05:56;;;;;;;9.70;8.63;;;;;;;7.10;38.57;99567.81;6993049;28;20237;-82
2023/02/28 11:09:25;;;;;;;8.77;7.83;;;;;;;6.83;38.80;99573.44;6998513;28;20393;-81
2023/02/28 11:12:46;;;;;;;9.90;8.67;;;;;;;5.95;41.24;99555.09;7000862;28;20573;-82
2023/02/28 11:16:10;;;;;;;10.00;8.40;;;;;;;6.55;40.00;99543.34;7000061;28;20302;-85
2023/02/28 11:19:41;;;;;;;9.67;8.17;;;;;;;6.56;40.15;99557.59;6999119;28;20325;-81
2023/02/28 11:23:05;;;;;;;10.10;8.60;;;;;;;6.43;39.93;99531.25;7000240;28;20202;-81
2023/02/28 11:26:37;;;;;;;11.00;8.67;;;;;;;7.75;37.67;99548.06;6994067;28;20251;-81
2023/02/28 11:30:01;;;;;;;9.17;8.00;;;;;;;7.52;37.58;99459.38;6993565;28;20304;-81
2023/02/28 11:33:24;;;;;;;10.70;8.63;;;;;;;8.33;36.63;99552.19;7001481;28;20241;-81
2023/02/28 11:36:46;;;;;;;12.10;8.80;;;;;;;8.17;37.82;99535.22;7000461;28;20210;-81
2023/02/28 11:40:14;;;;;;;13.07;8.83;;;;;;;8.33;36.80;99537.91;7003701;28;20299;-80
2023/02/28 11:43:47;;;;;;;11.50;8.90;;;;;;;8.65;36.15;99543.97;7006319;28;20250;-79
2023/02/28 11:47:16;;;;;;;10.77;9.37;;;;;;;7.30;37.66;99492.22;7002884;28;20304;-80
2023/02/28 11:50:48;;;;;;;12.07;7.90;;;;;;;8.44;36.96;99537.53;7003483;28;20374;-81
2023/02/28 11:54:27;;;;;;;9.03;8.13;;;;;;;8.34;35.91;99543.09;7003525;28;20668;-79
2023/02/28 11:58:18;;;;;;;8.90;7.97;;;;;;;9.07;35.26;99530.97;6999436;28;20284;-79
2023/02/28 12:01:59;;;;;;;9.47;7.67;;;;;;;10.18;33.63;99526.50;6974054;28;20206;-80
2023/02/28 12:05:26;;;;;;;11.07;8.73;;;;;;;8.94;34.90;99536.09;6986245;28;20801;-80
2023/02/28 12:09:01;;;;;;;9.20;7.27;;;;;;;8.28;36.00;99532.19;7003709;28;20256;-85
2023/02/28 12:12:32;;;;;;;9.57;8.37;;;;;;;9.60;34.86;99528.22;7004172;28;20679;-81
2023/02/28 12:16:19;;;;;;;8.93;8.03;;;;;;;8.76;35.58;99492.50;7002859;28;20197;-80
2023/02/28 12:19:47;;;;;;;8.97;7.43;;;;;;;9.91;33.92;99465.13;7002448;28;20664;-82
2023/02/28 12:23:23;;;;;;;9.70;8.07;;;;;;;9.58;34.59;99503.34;7004020;28;20644;-81
2023/02/28 12:26:45;;;;;;;11.33;9.17;;;;;;;8.86;34.63;99513.78;7001121;28;20673;-80
2023/02/28 12:30:15;;;;;;;9.40;8.37;;;;;;;8.31;36.61;99492.38;6995365;28;20324;-82
2023/02/28 12:33:43;;;;;;;10.73;8.80;;;;;;;8.63;36.14;99511.06;7002367;28;20194;-83
2023/02/28 12:37:08;;;;;;;11.03;8.47;;;;;;;8.84;35.36;99484.38;7001940;28;20729;-83
2023/02/28 12:40:37;;;;;;;9.33;8.10;;;;;;;9.37;34.83;99485.19;7001550;28;20226;-83
2023/02/28 12:44:03;;;;;;;10.70;8.90;;;;;;;8.77;34.42;99464.63;7000144;28;20238;-78
2023/02/28 12:47:25;;;;;;;10.60;7.93;;;;;;;9.36;34.37;99459.28;6994864;28;20630;-81
2023/02/28 12:50:48;;;;;;;8.77;7.57;;;;;;;9.87;34.11;99453.03;6973276;28;20320;-80
2023/02/28 12:54:15;;;;;;;10.90;7.97;;;;;;;10.13;33.92;99418.44;6971600;28;20713;-79
2023/02/28 12:57:40;;;;;;;9.60;8.63;;;;;;;8.67;35.00;99479.31;6984742;28;20668;-79
2023/02/28 13:01:27;;;;;;;10.40;8.37;;;;;;;9.23;34.72;99467.16;6997843;28;20266;-81
2023/02/28 13:04:58;;;;;;;9.73;8.10;;;;;;;9.85;33.72;99463.19;6998086;28;20684;-80
2023/02/28 13:08:40;;;;;;;9.20;8.17;;;;;;;10.27;33.49;99454.50;6997493;28;20226;-79
2023/02/28 13:12:02;;;;;;;10.10;8.60;;;;;;;10.62;32.82;99451.00;6997912;28;20245;-80
2023/02/28 13:15:28;;;;;;;8.50;7.57;;;;;;;8.75;35.61;99455.91;6997262;28;20256;-80
2023/02/28 13:18:49;;;;;;;7.67;6.90;;;;;;;9.32;34.60;99457.97;6983027;28;20228;-79
2023/02/28 13:22:20;;;;;;;9.57;8.40;;;;;;;9.33;34.67;99461.50;6997512;28;20277;-79
2023/02/28 13:25:54;;;;;;;9.00;7.67;;;;;;;9.61;34.59;99457.19;6993023;28;20247;-80
2023/02/28 13:29:25;;;;;;;9.07;7.97;;;;;;;9.45;33.87;99438.53;6975710;28;20246;-80
2023/02/28 13:32:47;;;;;;;11.83;8.07;;;;;;;10.34;33.75;99458.09;6976797;28;20186;-81
2023/02/28 13:36:30;;;;;;;10.07;7.60;;;;;;;9.91;34.63;99456.19;6975962;28;20201;-81
2023/02/28 13:39:53;;;;;;;11.20;8.27;;;;;;;10.79;32.15;99458.66;6978443;28;20275;-81
2023/02/28 13:43:18;;;;;;;8.53;7.40;;;;;;;10.84;31.97;99455.38;6999749;28;20206;-80
2023/02/28 13:47:13;;;;;;;8.97;7.40;;;;;;;11.21;32.00;99457.84;6994504;28;20209;-80
2023/02/28 13:50:37;;;;;;;10.07;7.77;;;;;;;10.44;32.64;99447.84;7002048;28;20312;-80
2023/02/28 13:54:02;;;;;;;9.20;7.77;;;;;;;9.45;33.54;99462.75;7001505;28;20204;-80
2023/02/28 13:57:32;;;;;;;8.80;7.90;;;;;;;8.73;35.14;99443.66;6995201;28;20293;-81
2023/02/28 14:01:07;;;;;;;9.13;7.97;;;;;;;9.42;34.29;99463.94;6985305;28;20218;-80
2023/02/28 14:04:47;;;;;;;10.97;7.50;;;;;;;9.20;34.69;99461.25;6994758;28;20270;-80
2023/02/28 14:08:15;;;;;;;8.40;7.50;;;;;;;8.78;35.17;99444.78;7000724;28;20369;-79
2023/02/28 14:11:38;;;;;;;9.43;7.43;;;;;;;10.43;33.25;99454.25;7000325;28;20239;-80
2023/02/28 14:14:59;;;;;;;8.70;7.07;;;;;;;9.76;33.56;99480.47;6997249;28;20293;-78
2023/02/28 14:18:25;;;;;;;8.50;7.70;;;;;;;9.35;34.80;99459.47;6997691;28;20320;-79
2023/02/28 14:21:57;;;;;;;8.60;7.70;;;;;;;10.67;32.51;99453.94;6997474;28;20328;-80
2023/02/28 14:25:24;;;;;;;11.33;7.93;;;;;;;11.25;32.12;99432.97;6999805;28;20198;-79
2023/02/28 14:28:56;;;;;;;10.93;8.40;;;;;;;11.08;31.90;99450.44;7000425;28;20769;-80
2023/02/28 14:32:24;;;;;;;8.73;7.57;;;;;;;9.71;33.84;99471.25;6999643;28;20214;-79
2023/02/28 14:35:57;;;;;;;10.90;7.27;;;;;;;9.62;33.57;99456.19;6996763;28;20229;-79
2023/02/28 14:39:22;;;;;;;8.47;7.57;;;;;;;9.73;33.86;99448.50;6998242;28;20312;-80
2023/02/28 14:42:48;;;;;;;9.83;7.67;;;;;;;9.48;33.61;99344.78;6997124;28;20270;-79
2023/02/28 14:46:13;;;;;;;8.83;7.20;;;;;;;10.55;33.18;99460.84;6997763;28;20213;-79
2023/02/28 14:49:37;;;;;;;9.13;7.70;;;;;;;11.15;32.54;99451.34;6997667;28;20320;-79
2023/02/28 14:53:00;;;;;;;8.33;7.53;;;;;;;10.61;33.04;99460.94;6995657;28;20315;-79
2023/02/28 14:56:24;;;;;;;8.63;7.77;;;;;;;10.06;33.23;99462.47;6995142;28;20682;-79
2023/02/28 14:59:47;;;;;;;8.63;7.10;;;;;;;9.98;33.50;99462.53;6995246;28;20226;-79
2023/02/28 15:03:20;;;;;;;8.33;7.20;;;;;;;9.36;34.87;99464.69;6971423;28;20210;-79
2023/02/28 15:06:41;;;;;;;9.03;7.63;;;;;;;10.08;33.48;99457.72;6991687;28;20296;-80
2023/02/28 15:10:15;;;;;;;8.67;7.77;;;;;;;10.46;32.63;99429.63;6999079;28;20229;-80
2023/02/28 15:13:40;;;;;;;9.93;7.40;;;;;;;9.93;34.05;99468.47;7000050;28;20197;-79
2023/02/28 15:17:04;;;;;;;9.27;8.17;;;;;;;9.09;34.82;99483.22;7003599;28;20197;-80
2023/02/28 15:20:27;;;;;;;8.43;7.53;;;;;;;9.79;33.73;99410.06;7004684;28;20316;-81
2023/02/28 15:23:51;;;;;;;9.27;7.90;;;;;;;10.48;33.80;99474.25;7004050;28;20328;-81
2023/02/28 15:27:17;;;;;;;12.10;8.83;;;;;;;10.23;33.17;99472.06;7004361;28;20339;-79
2023/02/28 15:30:38;;;;;;;13.83;8.70;;;;;;;9.71;34.21;99482.84;7004872;28;20325;-80
2023/02/28 15:34:04;;;;;;;9.43;8.20;;;;;;;8.96;35.44;99488.34;6999175;28;20262;-79
2023/02/28 15:37:29;;;;;;;11.90;8.37;;;;;;;9.40;35.29;99492.06;6979749;28;20709;-79
2023/02/28 15:40:54;;;;;;;10.10;8.60;;;;;;;9.80;34.39;99491.69;6979909;28;20778;-81
2023/02/28 15:44:26;;;;;;;11.20;9.10;;;;;;;9.47;35.20;99479.53;6974868;28;20293;-79
2023/02/28 15:47:48;;;;;;;10.47;8.53;;;;;;;9.98;34.21;99471.44;6976693;28;20275;-80
2023/02/28 15:51:16;;;;;;;8.77;7.90;;;;;;;9.79;34.52;99463.06;6977584;28;20621;-81
2023/02/28 15:54:37;;;;;;;10.90;8.83;;;;;;;9.49;35.37;99478.34;6977753;28;20244;-80
2023/02/28 15:58:01;;;;;;;10.67;7.93;;;;;;;9.32;35.01;99438.28;6977450;28;20380;-80
2023/02/28 16:01:27;;;;;;;10.10;8.33;;;;;;;9.95;34.27;99471.84;6993962;28;20205;-81
2023/02/28 16:04:58;;;;;;;9.27;8.10;;;;;;;9.81;34.42;99486.09;7005049;28;20670;-80
2023/02/28 16:08:19;;;;;;;9.30;8.30;;;;;;;9.43;35.02;99483.59;7003616;28;20267;-80
2023/02/28 16:11:43;;;;;;;11.23;9.23;;;;;;;8.72;36.16;99464.31;7004871;28;20759;-79
2023/02/28 16:15:08;;;;;;;9.97;8.67;;;;;;;9.60;34.78;99475.22;7004615;28;20351;-80